sensor_id;sensor_type;location;lat;lon;timestamp;P1;durP1;ratioP1;P2;durP2;ratioP2
35225;SDS011;21813;49.686;21.766;2023-02-15T00:01:38;44.65;;;24.15;;
35225;SDS011;21813;49.686;21.766;2023-02-15T00:04:06;50.90;;;26.70;;
35225;SDS011;21813;49.686;21.766;2023-02-15T00:06:32;52.40;;;25.27;;
35225;SDS011;21813;49.686;21.766;2023-02-15T00:09:00;51.33;;;26.08;;
35225;SDS011;21813;49.686;21.766;2023-02-15T00:11:27;51.75;;;25.85;;
35225;SDS011;21813;49.686;21.766;2023-02-15T00:14:07;53.67;;;27.45;;
35225;SDS011;21813;49.686;21.766;2023-02-15T00:16:41;53.92;;;26.63;;
35225;SDS011;21813;49.686;21.766;2023-02-15T00:19:10;53.03;;;27.65;;
35225;SDS011;21813;49.686;21.766;2023-02-15T00:21:37;51.63;;;27.65;;
35225;SDS011;21813;49.686;21.766;2023-02-15T00:24:05;49.85;;;25.20;;
35225;SDS011;21813;49.686;21.766;2023-02-15T00:26:32;50.70;;;26.38;;
35225;SDS011;21813;49.686;21.766;2023-02-15T00:29:00;48.53;;;26.38;;
35225;SDS011;21813;49.686;21.766;2023-02-15T00:31:26;46.88;;;25.42;;
35225;SDS011;21813;49.686;21.766;2023-02-15T00:34:16;50.22;;;27.25;;
35225;SDS011;21813;49.686;21.766;2023-02-15T00:36:45;47.72;;;25.77;;
35225;SDS011;21813;49.686;21.766;2023-02-15T00:39:20;46.13;;;25.77;;
35225;SDS011;21813;49.686;21.766;2023-02-15T00:41:46;45.13;;;24.60;;
35225;SDS011;21813;49.686;21.766;2023-02-15T00:44:13;43.23;;;24.20;;
35225;SDS011;21813;49.686;21.766;2023-02-15T00:46:40;48.25;;;24.77;;
35225;SDS011;21813;49.686;21.766;2023-02-15T00:49:07;47.65;;;25.60;;
35225;SDS011;21813;49.686;21.766;2023-02-15T00:51:33;50.03;;;25.15;;
35225;SDS011;21813;49.686;21.766;2023-02-15T00:54:01;51.97;;;27.02;;
35225;SDS011;21813;49.686;21.766;2023-02-15T00:56:27;48.00;;;24.65;;
35225;SDS011;21813;49.686;21.766;2023-02-15T00:58:54;51.88;;;26.33;;
35225;SDS011;21813;49.686;21.766;2023-02-15T01:01:20;51.78;;;27.65;;
35225;SDS011;21813;49.686;21.766;2023-02-15T01:03:47;53.13;;;26.25;;
35225;SDS011;21813;49.686;21.766;2023-02-15T01:06:13;50.40;;;27.10;;
35225;SDS011;21813;49.686;21.766;2023-02-15T01:08:40;53.30;;;24.25;;
35225;SDS011;21813;49.686;21.766;2023-02-15T01:11:07;48.90;;;25.48;;
35225;SDS011;21813;49.686;21.766;2023-02-15T01:13:36;47.05;;;24.55;;
35225;SDS011;21813;49.686;21.766;2023-02-15T01:16:03;45.63;;;25.05;;
35225;SDS011;21813;49.686;21.766;2023-02-15T01:18:29;43.42;;;23.95;;
35225;SDS011;21813;49.686;21.766;2023-02-15T01:20:55;47.60;;;24.17;;
35225;SDS011;21813;49.686;21.766;2023-02-15T01:23:22;48.85;;;25.77;;
35225;SDS011;21813;49.686;21.766;2023-02-15T01:25:49;49.60;;;25.80;;
35225;SDS011;21813;49.686;21.766;2023-02-15T01:28:15;46.97;;;25.30;;
35225;SDS011;21813;49.686;21.766;2023-02-15T01:30:41;42.65;;;23.83;;
35225;SDS011;21813;49.686;21.766;2023-02-15T01:33:09;47.55;;;23.55;;
35225;SDS011;21813;49.686;21.766;2023-02-15T01:35:43;45.05;;;23.45;;
35225;SDS011;21813;49.686;21.766;2023-02-15T01:38:10;45.33;;;26.15;;
35225;SDS011;21813;49.686;21.766;2023-02-15T01:40:36;47.70;;;25.30;;
35225;SDS011;21813;49.686;21.766;2023-02-15T01:43:09;47.20;;;24.25;;
35225;SDS011;21813;49.686;21.766;2023-02-15T01:45:36;47.85;;;22.85;;
35225;SDS011;21813;49.686;21.766;2023-02-15T01:48:24;45.25;;;24.05;;
35225;SDS011;21813;49.686;21.766;2023-02-15T01:50:53;47.20;;;24.55;;
35225;SDS011;21813;49.686;21.766;2023-02-15T01:56:17;48.92;;;24.73;;
35225;SDS011;21813;49.686;21.766;2023-02-15T01:58:47;46.00;;;24.65;;
35225;SDS011;21813;49.686;21.766;2023-02-15T02:01:15;47.78;;;23.95;;
35225;SDS011;21813;49.686;21.766;2023-02-15T02:06:29;52.45;;;26.02;;
35225;SDS011;21813;49.686;21.766;2023-02-15T02:08:58;44.80;;;24.27;;
35225;SDS011;21813;49.686;21.766;2023-02-15T02:11:25;42.45;;;21.25;;
35225;SDS011;21813;49.686;21.766;2023-02-15T02:13:53;46.03;;;22.45;;
35225;SDS011;21813;49.686;21.766;2023-02-15T02:16:22;46.38;;;24.42;;
35225;SDS011;21813;49.686;21.766;2023-02-15T02:19:08;50.47;;;24.45;;
35225;SDS011;21813;49.686;21.766;2023-02-15T02:22:08;41.80;;;22.95;;
35225;SDS011;21813;49.686;21.766;2023-02-15T02:25:06;44.78;;;23.95;;
35225;SDS011;21813;49.686;21.766;2023-02-15T02:28:56;45.22;;;22.88;;
35225;SDS011;21813;49.686;21.766;2023-02-15T02:36:35;45.88;;;23.23;;
35225;SDS011;21813;49.686;21.766;2023-02-15T02:39:16;42.63;;;23.45;;
35225;SDS011;21813;49.686;21.766;2023-02-15T02:42:25;45.90;;;23.45;;
35225;SDS011;21813;49.686;21.766;2023-02-15T02:45:39;42.15;;;22.27;;
35225;SDS011;21813;49.686;21.766;2023-02-15T02:47:55;45.25;;;23.70;;
35225;SDS011;21813;49.686;21.766;2023-02-15T02:50:27;46.50;;;23.83;;
35225;SDS011;21813;49.686;21.766;2023-02-15T02:52:55;49.47;;;24.33;;
35225;SDS011;21813;49.686;21.766;2023-02-15T02:55:30;46.65;;;23.27;;
35225;SDS011;21813;49.686;21.766;2023-02-15T02:58:01;35.80;;;19.48;;
35225;SDS011;21813;49.686;21.766;2023-02-15T03:00:32;42.47;;;21.50;;
35225;SDS011;21813;49.686;21.766;2023-02-15T03:03:12;41.17;;;21.52;;
35225;SDS011;21813;49.686;21.766;2023-02-15T03:05:43;36.40;;;20.40;;
35225;SDS011;21813;49.686;21.766;2023-02-15T03:08:14;38.55;;;22.23;;
35225;SDS011;21813;49.686;21.766;2023-02-15T03:10:47;48.45;;;23.13;;
35225;SDS011;21813;49.686;21.766;2023-02-15T03:13:17;42.80;;;22.58;;
35225;SDS011;21813;49.686;21.766;2023-02-15T03:15:44;45.45;;;24.50;;
35225;SDS011;21813;49.686;21.766;2023-02-15T03:18:33;40.13;;;21.65;;
35225;SDS011;21813;49.686;21.766;2023-02-15T03:21:03;44.25;;;22.33;;
35225;SDS011;21813;49.686;21.766;2023-02-15T03:23:33;39.35;;;22.25;;
35225;SDS011;21813;49.686;21.766;2023-02-15T03:26:02;40.58;;;21.75;;
35225;SDS011;21813;49.686;21.766;2023-02-15T03:28:34;41.45;;;21.20;;
35225;SDS011;21813;49.686;21.766;2023-02-15T03:31:05;44.17;;;22.55;;
35225;SDS011;21813;49.686;21.766;2023-02-15T03:33:36;43.67;;;22.90;;
35225;SDS011;21813;49.686;21.766;2023-02-15T03:36:11;38.03;;;20.77;;
35225;SDS011;21813;49.686;21.766;2023-02-15T03:38:58;41.28;;;21.92;;
35225;SDS011;21813;49.686;21.766;2023-02-15T03:41:26;47.33;;;23.17;;
35225;SDS011;21813;49.686;21.766;2023-02-15T03:43:57;31.77;;;17.03;;
35225;SDS011;21813;49.686;21.766;2023-02-15T03:47:13;33.78;;;18.45;;
35225;SDS011;21813;49.686;21.766;2023-02-15T03:49:24;36.75;;;19.33;;
35225;SDS011;21813;49.686;21.766;2023-02-15T03:51:59;40.65;;;21.90;;
35225;SDS011;21813;49.686;21.766;2023-02-15T03:54:29;37.63;;;17.92;;
35225;SDS011;21813;49.686;21.766;2023-02-15T03:57:29;31.05;;;18.40;;
35225;SDS011;21813;49.686;21.766;2023-02-15T04:03:42;42.45;;;22.10;;
35225;SDS011;21813;49.686;21.766;2023-02-15T04:06:02;38.33;;;20.30;;
35225;SDS011;21813;49.686;21.766;2023-02-15T04:08:28;40.90;;;21.45;;
35225;SDS011;21813;49.686;21.766;2023-02-15T04:11:35;46.33;;;22.02;;
35225;SDS011;21813;49.686;21.766;2023-02-15T04:14:01;38.42;;;21.67;;
35225;SDS011;21813;49.686;21.766;2023-02-15T04:16:50;40.17;;;21.25;;
35225;SDS011;21813;49.686;21.766;2023-02-15T04:19:15;46.13;;;23.67;;
35225;SDS011;21813;49.686;21.766;2023-02-15T04:22:01;46.20;;;23.13;;
35225;SDS011;21813;49.686;21.766;2023-02-15T04:24:45;43.70;;;21.65;;
35225;SDS011;21813;49.686;21.766;2023-02-15T04:27:31;40.63;;;21.58;;
35225;SDS011;21813;49.686;21.766;2023-02-15T04:29:57;44.35;;;22.77;;
35225;SDS011;21813;49.686;21.766;2023-02-15T04:32:23;47.00;;;23.33;;
35225;SDS011;21813;49.686;21.766;2023-02-15T04:34:48;45.17;;;22.90;;
35225;SDS011;21813;49.686;21.766;2023-02-15T04:37:16;43.55;;;22.02;;
35225;SDS011;21813;49.686;21.766;2023-02-15T04:39:41;40.97;;;22.63;;
35225;SDS011;21813;49.686;21.766;2023-02-15T04:42:16;46.53;;;24.52;;
35225;SDS011;21813;49.686;21.766;2023-02-15T04:44:44;44.40;;;23.15;;
35225;SDS011;21813;49.686;21.766;2023-02-15T04:47:11;46.75;;;24.20;;
35225;SDS011;21813;49.686;21.766;2023-02-15T04:49:37;46.47;;;24.08;;
35225;SDS011;21813;49.686;21.766;2023-02-15T04:52:05;40.15;;;21.17;;
35225;SDS011;21813;49.686;21.766;2023-02-15T04:54:31;42.67;;;23.88;;
35225;SDS011;21813;49.686;21.766;2023-02-15T04:56:57;25.38;;;15.48;;
35225;SDS011;21813;49.686;21.766;2023-02-15T04:59:23;30.77;;;17.20;;
35225;SDS011;21813;49.686;21.766;2023-02-15T05:01:50;31.98;;;16.60;;
35225;SDS011;21813;49.686;21.766;2023-02-15T05:04:16;32.90;;;16.70;;
35225;SDS011;21813;49.686;21.766;2023-02-15T05:06:43;29.65;;;16.67;;
35225;SDS011;21813;49.686;21.766;2023-02-15T05:09:10;31.67;;;15.00;;
35225;SDS011;21813;49.686;21.766;2023-02-15T05:11:39;37.90;;;18.58;;
35225;SDS011;21813;49.686;21.766;2023-02-15T05:14:05;37.83;;;21.25;;
35225;SDS011;21813;49.686;21.766;2023-02-15T05:16:31;43.55;;;21.05;;
35225;SDS011;21813;49.686;21.766;2023-02-15T05:18:57;41.10;;;22.45;;
35225;SDS011;21813;49.686;21.766;2023-02-15T05:21:23;46.83;;;22.83;;
35225;SDS011;21813;49.686;21.766;2023-02-15T05:23:50;42.75;;;22.13;;
35225;SDS011;21813;49.686;21.766;2023-02-15T05:26:17;44.85;;;22.52;;
35225;SDS011;21813;49.686;21.766;2023-02-15T05:29:06;43.50;;;20.88;;
35225;SDS011;21813;49.686;21.766;2023-02-15T05:31:34;28.35;;;16.15;;
35225;SDS011;21813;49.686;21.766;2023-02-15T05:34:00;34.63;;;19.88;;
35225;SDS011;21813;49.686;21.766;2023-02-15T05:36:28;35.63;;;20.05;;
35225;SDS011;21813;49.686;21.766;2023-02-15T05:38:54;40.30;;;20.15;;
35225;SDS011;21813;49.686;21.766;2023-02-15T05:41:22;37.75;;;19.15;;
35225;SDS011;21813;49.686;21.766;2023-02-15T05:43:48;50.15;;;25.38;;
35225;SDS011;21813;49.686;21.766;2023-02-15T05:46:15;42.70;;;22.65;;
35225;SDS011;21813;49.686;21.766;2023-02-15T05:48:41;42.00;;;21.30;;
35225;SDS011;21813;49.686;21.766;2023-02-15T05:51:08;37.97;;;19.98;;
35225;SDS011;21813;49.686;21.766;2023-02-15T05:53:38;41.20;;;20.95;;
35225;SDS011;21813;49.686;21.766;2023-02-15T05:56:07;37.08;;;19.65;;
35225;SDS011;21813;49.686;21.766;2023-02-15T05:58:35;36.55;;;19.48;;
35225;SDS011;21813;49.686;21.766;2023-02-15T06:01:10;38.08;;;21.27;;
35225;SDS011;21813;49.686;21.766;2023-02-15T06:03:36;30.45;;;17.20;;
35225;SDS011;21813;49.686;21.766;2023-02-15T06:06:03;37.88;;;20.52;;
35225;SDS011;21813;49.686;21.766;2023-02-15T06:08:30;40.97;;;22.30;;
35225;SDS011;21813;49.686;21.766;2023-02-15T06:10:57;35.50;;;20.23;;
35225;SDS011;21813;49.686;21.766;2023-02-15T06:13:23;36.30;;;19.55;;
35225;SDS011;21813;49.686;21.766;2023-02-15T06:15:49;38.55;;;19.27;;
35225;SDS011;21813;49.686;21.766;2023-02-15T06:18:15;36.00;;;19.35;;
35225;SDS011;21813;49.686;21.766;2023-02-15T06:20:41;36.17;;;18.73;;
35225;SDS011;21813;49.686;21.766;2023-02-15T06:23:06;31.23;;;18.17;;
35225;SDS011;21813;49.686;21.766;2023-02-15T06:25:33;30.27;;;17.65;;
35225;SDS011;21813;49.686;21.766;2023-02-15T06:27:59;35.50;;;18.85;;
35225;SDS011;21813;49.686;21.766;2023-02-15T06:30:26;44.80;;;21.70;;
35225;SDS011;21813;49.686;21.766;2023-02-15T06:32:52;42.53;;;22.05;;
35225;SDS011;21813;49.686;21.766;2023-02-15T06:35:18;42.72;;;22.45;;
35225;SDS011;21813;49.686;21.766;2023-02-15T06:37:45;47.53;;;24.58;;
35225;SDS011;21813;49.686;21.766;2023-02-15T06:50:10;41.13;;;19.52;;
35225;SDS011;21813;49.686;21.766;2023-02-15T06:52:36;34.83;;;18.98;;
35225;SDS011;21813;49.686;21.766;2023-02-15T06:55:02;41.17;;;19.65;;
35225;SDS011;21813;49.686;21.766;2023-02-15T06:57:28;36.92;;;19.90;;
35225;SDS011;21813;49.686;21.766;2023-02-15T06:59:54;34.03;;;17.10;;
35225;SDS011;21813;49.686;21.766;2023-02-15T07:02:20;28.48;;;16.48;;
35225;SDS011;21813;49.686;21.766;2023-02-15T07:04:46;38.83;;;20.67;;
35225;SDS011;21813;49.686;21.766;2023-02-15T07:07:12;26.25;;;15.73;;
35225;SDS011;21813;49.686;21.766;2023-02-15T07:09:39;26.83;;;15.18;;
35225;SDS011;21813;49.686;21.766;2023-02-15T07:12:05;27.50;;;15.77;;
35225;SDS011;21813;49.686;21.766;2023-02-15T07:14:50;26.45;;;15.88;;
35225;SDS011;21813;49.686;21.766;2023-02-15T07:17:17;28.35;;;17.17;;
35225;SDS011;21813;49.686;21.766;2023-02-15T07:19:42;27.75;;;16.02;;
35225;SDS011;21813;49.686;21.766;2023-02-15T07:22:10;29.73;;;15.75;;
35225;SDS011;21813;49.686;21.766;2023-02-15T07:24:35;27.42;;;16.75;;
35225;SDS011;21813;49.686;21.766;2023-02-15T07:27:02;30.95;;;15.93;;
35225;SDS011;21813;49.686;21.766;2023-02-15T07:29:28;25.60;;;15.63;;
35225;SDS011;21813;49.686;21.766;2023-02-15T07:31:56;26.98;;;15.32;;
35225;SDS011;21813;49.686;21.766;2023-02-15T07:34:22;27.95;;;16.33;;
35225;SDS011;21813;49.686;21.766;2023-02-15T07:36:52;26.25;;;15.63;;
35225;SDS011;21813;49.686;21.766;2023-02-15T07:39:19;25.33;;;15.05;;
35225;SDS011;21813;49.686;21.766;2023-02-15T07:41:47;26.27;;;14.65;;
35225;SDS011;21813;49.686;21.766;2023-02-15T07:44:13;30.33;;;15.45;;
35225;SDS011;21813;49.686;21.766;2023-02-15T07:46:42;34.55;;;15.98;;
35225;SDS011;21813;49.686;21.766;2023-02-15T07:49:07;26.38;;;16.65;;
35225;SDS011;21813;49.686;21.766;2023-02-15T07:51:33;29.77;;;17.33;;
35225;SDS011;21813;49.686;21.766;2023-02-15T07:53:59;31.90;;;16.45;;
35225;SDS011;21813;49.686;21.766;2023-02-15T07:56:25;29.77;;;16.23;;
35225;SDS011;21813;49.686;21.766;2023-02-15T07:58:51;23.02;;;13.20;;
35225;SDS011;21813;49.686;21.766;2023-02-15T08:01:19;26.20;;;15.95;;
35225;SDS011;21813;49.686;21.766;2023-02-15T08:03:47;30.02;;;16.65;;
35225;SDS011;21813;49.686;21.766;2023-02-15T08:06:14;28.35;;;15.57;;
35225;SDS011;21813;49.686;21.766;2023-02-15T08:08:42;29.60;;;15.68;;
35225;SDS011;21813;49.686;21.766;2023-02-15T08:13:57;26.20;;;16.25;;
35225;SDS011;21813;49.686;21.766;2023-02-15T08:16:36;25.08;;;15.25;;
35225;SDS011;21813;49.686;21.766;2023-02-15T08:19:10;27.35;;;15.80;;
35225;SDS011;21813;49.686;21.766;2023-02-15T08:21:56;27.13;;;15.38;;
35225;SDS011;21813;49.686;21.766;2023-02-15T08:24:26;28.48;;;16.98;;
35225;SDS011;21813;49.686;21.766;2023-02-15T08:26:53;33.92;;;17.52;;
35225;SDS011;21813;49.686;21.766;2023-02-15T08:29:21;26.95;;;15.70;;
35225;SDS011;21813;49.686;21.766;2023-02-15T08:31:50;28.63;;;16.63;;
35225;SDS011;21813;49.686;21.766;2023-02-15T08:34:19;32.22;;;16.38;;
35225;SDS011;21813;49.686;21.766;2023-02-15T08:36:46;29.33;;;16.58;;
35225;SDS011;21813;49.686;21.766;2023-02-15T08:39:12;27.17;;;15.63;;
35225;SDS011;21813;49.686;21.766;2023-02-15T08:41:41;30.00;;;16.38;;
35225;SDS011;21813;49.686;21.766;2023-02-15T08:44:11;31.95;;;17.33;;
35225;SDS011;21813;49.686;21.766;2023-02-15T08:46:39;31.83;;;16.67;;
35225;SDS011;21813;49.686;21.766;2023-02-15T08:49:06;28.23;;;17.23;;
35225;SDS011;21813;49.686;21.766;2023-02-15T08:51:34;26.95;;;15.85;;
35225;SDS011;21813;49.686;21.766;2023-02-15T08:54:03;30.65;;;15.52;;
35225;SDS011;21813;49.686;21.766;2023-02-15T08:56:46;23.50;;;14.68;;
35225;SDS011;21813;49.686;21.766;2023-02-15T08:59:15;26.10;;;15.85;;
35225;SDS011;21813;49.686;21.766;2023-02-15T09:01:42;27.10;;;15.23;;
35225;SDS011;21813;49.686;21.766;2023-02-15T09:04:09;26.15;;;14.68;;
35225;SDS011;21813;49.686;21.766;2023-02-15T09:06:35;33.35;;;16.85;;
35225;SDS011;21813;49.686;21.766;2023-02-15T09:09:05;27.52;;;15.10;;
35225;SDS011;21813;49.686;21.766;2023-02-15T09:11:33;29.35;;;16.02;;
35225;SDS011;21813;49.686;21.766;2023-02-15T09:14:03;26.63;;;15.88;;
35225;SDS011;21813;49.686;21.766;2023-02-15T09:16:32;37.22;;;16.90;;
35225;SDS011;21813;49.686;21.766;2023-02-15T09:18:59;32.13;;;17.08;;
35225;SDS011;21813;49.686;21.766;2023-02-15T09:21:30;31.95;;;17.75;;
35225;SDS011;21813;49.686;21.766;2023-02-15T09:23:57;31.13;;;16.80;;
35225;SDS011;21813;49.686;21.766;2023-02-15T09:26:25;33.95;;;17.75;;
35225;SDS011;21813;49.686;21.766;2023-02-15T09:28:54;25.05;;;15.43;;
35225;SDS011;21813;49.686;21.766;2023-02-15T09:31:23;28.30;;;15.48;;
35225;SDS011;21813;49.686;21.766;2023-02-15T09:33:51;29.77;;;16.40;;
35225;SDS011;21813;49.686;21.766;2023-02-15T09:38:58;31.63;;;16.55;;
35225;SDS011;21813;49.686;21.766;2023-02-15T09:49:58;31.13;;;16.20;;
35225;SDS011;21813;49.686;21.766;2023-02-15T09:52:45;26.52;;;15.98;;
35225;SDS011;21813;49.686;21.766;2023-02-15T10:03:47;29.95;;;17.67;;
35225;SDS011;21813;49.686;21.766;2023-02-15T10:06:31;32.40;;;17.65;;
35225;SDS011;21813;49.686;21.766;2023-02-15T10:14:37;35.47;;;19.83;;
35225;SDS011;21813;49.686;21.766;2023-02-15T10:20:20;32.45;;;17.90;;
35225;SDS011;21813;49.686;21.766;2023-02-15T10:28:00;35.42;;;18.85;;
35225;SDS011;21813;49.686;21.766;2023-02-15T10:30:42;36.67;;;19.08;;
35225;SDS011;21813;49.686;21.766;2023-02-15T10:41:27;31.27;;;17.88;;
35225;SDS011;21813;49.686;21.766;2023-02-15T11:05:26;38.38;;;20.33;;
35225;SDS011;21813;49.686;21.766;2023-02-15T11:07:54;36.83;;;19.88;;
35225;SDS011;21813;49.686;21.766;2023-02-15T11:10:32;40.10;;;20.83;;
35225;SDS011;21813;49.686;21.766;2023-02-15T11:13:11;33.70;;;18.92;;
35225;SDS011;21813;49.686;21.766;2023-02-15T11:15:43;39.22;;;19.30;;
35225;SDS011;21813;49.686;21.766;2023-02-15T11:18:19;41.30;;;21.17;;
35225;SDS011;21813;49.686;21.766;2023-02-15T11:20:54;38.53;;;20.40;;
35225;SDS011;21813;49.686;21.766;2023-02-15T11:23:23;35.08;;;20.15;;
35225;SDS011;21813;49.686;21.766;2023-02-15T11:25:53;37.67;;;21.02;;
35225;SDS011;21813;49.686;21.766;2023-02-15T11:28:37;36.90;;;20.02;;
35225;SDS011;21813;49.686;21.766;2023-02-15T11:31:13;38.63;;;20.88;;
35225;SDS011;21813;49.686;21.766;2023-02-15T11:33:44;38.95;;;19.88;;
35225;SDS011;21813;49.686;21.766;2023-02-15T11:36:36;35.60;;;20.40;;
35225;SDS011;21813;49.686;21.766;2023-02-15T11:39:09;38.47;;;20.70;;
35225;SDS011;21813;49.686;21.766;2023-02-15T11:41:38;36.90;;;20.42;;
35225;SDS011;21813;49.686;21.766;2023-02-15T11:46:41;36.40;;;19.77;;
35225;SDS011;21813;49.686;21.766;2023-02-15T11:49:12;39.67;;;20.27;;
35225;SDS011;21813;49.686;21.766;2023-02-15T11:52:00;37.20;;;19.48;;
35225;SDS011;21813;49.686;21.766;2023-02-15T11:54:31;37.58;;;21.05;;
35225;SDS011;21813;49.686;21.766;2023-02-15T11:57:10;43.25;;;21.77;;
35225;SDS011;21813;49.686;21.766;2023-02-15T11:59:42;35.63;;;20.33;;
35225;SDS011;21813;49.686;21.766;2023-02-15T12:02:20;39.65;;;19.60;;
35225;SDS011;21813;49.686;21.766;2023-02-15T12:04:48;33.58;;;19.95;;
35225;SDS011;21813;49.686;21.766;2023-02-15T12:07:24;33.13;;;20.08;;
35225;SDS011;21813;49.686;21.766;2023-02-15T12:12:43;39.30;;;20.67;;
35225;SDS011;21813;49.686;21.766;2023-02-15T12:15:10;34.92;;;19.90;;
35225;SDS011;21813;49.686;21.766;2023-02-15T12:17:58;38.47;;;20.45;;
35225;SDS011;21813;49.686;21.766;2023-02-15T12:20:33;38.13;;;19.98;;
35225;SDS011;21813;49.686;21.766;2023-02-15T12:23:05;40.47;;;19.92;;
35225;SDS011;21813;49.686;21.766;2023-02-15T12:25:51;34.60;;;19.60;;
35225;SDS011;21813;49.686;21.766;2023-02-15T12:30:55;36.45;;;19.92;;
35225;SDS011;21813;49.686;21.766;2023-02-15T12:36:04;40.55;;;20.15;;
35225;SDS011;21813;49.686;21.766;2023-02-15T12:38:36;35.05;;;19.55;;
35225;SDS011;21813;49.686;21.766;2023-02-15T12:41:21;37.67;;;21.98;;
35225;SDS011;21813;49.686;21.766;2023-02-15T12:43:53;36.90;;;19.52;;
35225;SDS011;21813;49.686;21.766;2023-02-15T12:46:29;33.95;;;19.10;;
35225;SDS011;21813;49.686;21.766;2023-02-15T12:49:19;37.78;;;21.33;;
35225;SDS011;21813;49.686;21.766;2023-02-15T12:51:52;35.05;;;20.45;;
35225;SDS011;21813;49.686;21.766;2023-02-15T13:00:02;39.42;;;22.50;;
35225;SDS011;21813;49.686;21.766;2023-02-15T13:02:35;45.65;;;22.98;;
35225;SDS011;21813;49.686;21.766;2023-02-15T13:08:00;40.72;;;22.05;;
35225;SDS011;21813;49.686;21.766;2023-02-15T13:10:31;45.28;;;22.48;;
35225;SDS011;21813;49.686;21.766;2023-02-15T13:12:59;40.75;;;22.40;;
35225;SDS011;21813;49.686;21.766;2023-02-15T13:15:34;42.60;;;22.42;;
35225;SDS011;21813;49.686;21.766;2023-02-15T13:18:02;43.65;;;23.17;;
35225;SDS011;21813;49.686;21.766;2023-02-15T13:20:32;41.03;;;23.15;;
35225;SDS011;21813;49.686;21.766;2023-02-15T13:23:09;46.58;;;22.92;;
35225;SDS011;21813;49.686;21.766;2023-02-15T13:26:05;44.10;;;22.55;;
35225;SDS011;21813;49.686;21.766;2023-02-15T13:28:44;38.10;;;21.88;;
35225;SDS011;21813;49.686;21.766;2023-02-15T13:31:19;48.97;;;23.27;;
35225;SDS011;21813;49.686;21.766;2023-02-15T13:33:50;39.00;;;21.00;;
35225;SDS011;21813;49.686;21.766;2023-02-15T14:01:45;34.58;;;18.95;;
35225;SDS011;21813;49.686;21.766;2023-02-15T14:07:26;35.92;;;18.83;;
35225;SDS011;21813;49.686;21.766;2023-02-15T14:18:56;38.03;;;22.13;;
35225;SDS011;21813;49.686;21.766;2023-02-15T14:29:47;37.95;;;19.92;;
35225;SDS011;21813;49.686;21.766;2023-02-15T14:32:27;41.60;;;22.88;;
35225;SDS011;21813;49.686;21.766;2023-02-15T14:35:02;36.97;;;19.73;;
35225;SDS011;21813;49.686;21.766;2023-02-15T14:49:06;36.75;;;20.67;;
35225;SDS011;21813;49.686;21.766;2023-02-15T14:54:08;33.60;;;18.75;;
35225;SDS011;21813;49.686;21.766;2023-02-15T14:56:35;41.95;;;20.80;;
35225;SDS011;21813;49.686;21.766;2023-02-15T15:09:42;39.35;;;20.42;;
35225;SDS011;21813;49.686;21.766;2023-02-15T15:14:52;71.60;;;34.70;;
35225;SDS011;21813;49.686;21.766;2023-02-15T15:19:58;114.75;;;53.15;;
35225;SDS011;21813;49.686;21.766;2023-02-15T15:22:26;47.83;;;27.20;;
35225;SDS011;21813;49.686;21.766;2023-02-15T15:24:54;40.58;;;22.70;;
35225;SDS011;21813;49.686;21.766;2023-02-15T15:27:37;66.13;;;38.00;;
35225;SDS011;21813;49.686;21.766;2023-02-15T15:38:05;43.13;;;24.27;;
35225;SDS011;21813;49.686;21.766;2023-02-15T15:46:17;44.83;;;24.25;;
35225;SDS011;21813;49.686;21.766;2023-02-15T15:49:10;49.70;;;24.45;;
35225;SDS011;21813;49.686;21.766;2023-02-15T15:51:59;48.00;;;25.42;;
35225;SDS011;21813;49.686;21.766;2023-02-15T15:54:26;47.45;;;25.60;;
35225;SDS011;21813;49.686;21.766;2023-02-15T15:57:03;45.75;;;24.40;;
35225;SDS011;21813;49.686;21.766;2023-02-15T15:59:30;48.97;;;25.85;;
35225;SDS011;21813;49.686;21.766;2023-02-15T16:02:05;51.28;;;25.33;;
35225;SDS011;21813;49.686;21.766;2023-02-15T16:04:43;50.60;;;27.00;;
35225;SDS011;21813;49.686;21.766;2023-02-15T16:12:30;64.75;;;28.15;;
35225;SDS011;21813;49.686;21.766;2023-02-15T16:15:00;52.03;;;27.75;;
35225;SDS011;21813;49.686;21.766;2023-02-15T16:17:30;55.42;;;28.55;;
35225;SDS011;21813;49.686;21.766;2023-02-15T16:20:03;69.53;;;33.63;;
35225;SDS011;21813;49.686;21.766;2023-02-15T16:22:40;67.13;;;31.67;;
35225;SDS011;21813;49.686;21.766;2023-02-15T16:27:50;69.03;;;34.38;;
35225;SDS011;21813;49.686;21.766;2023-02-15T16:33:02;75.07;;;38.78;;
35225;SDS011;21813;49.686;21.766;2023-02-15T16:35:30;88.53;;;41.55;;
35225;SDS011;21813;49.686;21.766;2023-02-15T16:37:57;111.30;;;52.80;;
35225;SDS011;21813;49.686;21.766;2023-02-15T16:42:49;105.63;;;51.05;;
35225;SDS011;21813;49.686;21.766;2023-02-15T16:45:16;102.78;;;49.05;;
35225;SDS011;21813;49.686;21.766;2023-02-15T16:47:48;112.68;;;54.70;;
35225;SDS011;21813;49.686;21.766;2023-02-15T16:50:34;125.88;;;59.65;;
35225;SDS011;21813;49.686;21.766;2023-02-15T16:53:03;118.32;;;58.83;;
35225;SDS011;21813;49.686;21.766;2023-02-15T16:55:35;135.13;;;60.65;;
35225;SDS011;21813;49.686;21.766;2023-02-15T16:58:05;130.52;;;62.47;;
35225;SDS011;21813;49.686;21.766;2023-02-15T17:00:36;135.05;;;65.70;;
35225;SDS011;21813;49.686;21.766;2023-02-15T17:03:06;142.20;;;67.40;;
35225;SDS011;21813;49.686;21.766;2023-02-15T17:05:50;143.35;;;68.32;;
35225;SDS011;21813;49.686;21.766;2023-02-15T17:08:25;153.05;;;73.10;;
35225;SDS011;21813;49.686;21.766;2023-02-15T17:13:27;147.05;;;72.35;;
35225;SDS011;21813;49.686;21.766;2023-02-15T17:18:26;147.60;;;68.13;;
35225;SDS011;21813;49.686;21.766;2023-02-15T17:20:53;151.23;;;74.03;;
35225;SDS011;21813;49.686;21.766;2023-02-15T17:26:11;215.32;;;100.15;;
35225;SDS011;21813;49.686;21.766;2023-02-15T17:28:50;198.88;;;96.90;;
35225;SDS011;21813;49.686;21.766;2023-02-15T17:31:19;184.25;;;88.63;;
35225;SDS011;21813;49.686;21.766;2023-02-15T17:33:46;180.50;;;85.28;;
35225;SDS011;21813;49.686;21.766;2023-02-15T17:36:19;182.85;;;90.28;;
35225;SDS011;21813;49.686;21.766;2023-02-15T17:41:24;180.55;;;83.95;;
35225;SDS011;21813;49.686;21.766;2023-02-15T17:43:56;183.90;;;87.68;;
35225;SDS011;21813;49.686;21.766;2023-02-15T17:46:22;196.93;;;92.88;;
35225;SDS011;21813;49.686;21.766;2023-02-15T17:48:53;188.55;;;89.53;;
35225;SDS011;21813;49.686;21.766;2023-02-15T17:51:20;186.90;;;87.30;;
35225;SDS011;21813;49.686;21.766;2023-02-15T17:53:46;196.93;;;89.15;;
35225;SDS011;21813;49.686;21.766;2023-02-15T17:56:31;215.00;;;94.82;;
35225;SDS011;21813;49.686;21.766;2023-02-15T17:59:01;199.20;;;92.78;;
35225;SDS011;21813;49.686;21.766;2023-02-15T18:01:31;204.85;;;95.75;;
35225;SDS011;21813;49.686;21.766;2023-02-15T18:04:18;200.73;;;91.28;;
35225;SDS011;21813;49.686;21.766;2023-02-15T18:07:03;198.60;;;92.47;;
35225;SDS011;21813;49.686;21.766;2023-02-15T18:09:48;222.25;;;100.85;;
35225;SDS011;21813;49.686;21.766;2023-02-15T18:12:33;216.05;;;98.45;;
35225;SDS011;21813;49.686;21.766;2023-02-15T18:15:03;226.02;;;103.15;;
35225;SDS011;21813;49.686;21.766;2023-02-15T18:17:33;233.73;;;105.63;;